createdAt,value
2022-11-07T00:02:05.956Z,61.49
2022-11-07T00:04:33.284Z,61.73
2022-11-07T00:07:00.960Z,61.21
2022-11-07T00:09:28.725Z,62.16
2022-11-07T00:11:55.450Z,61.95
2022-11-07T00:14:24.875Z,62.22
2022-11-07T00:16:51.681Z,61.48
2022-11-07T00:19:24.344Z,61.99
2022-11-07T00:21:51.200Z,62.19
2022-11-07T00:24:18.459Z,62.54
2022-11-07T00:26:46.773Z,62.49
2022-11-07T00:29:18.621Z,62.18
2022-11-07T00:31:46.586Z,62.42
2022-11-07T00:34:14.161Z,62.21
2022-11-07T00:36:41.898Z,62.26
2022-11-07T00:39:10.058Z,62.55
2022-11-07T00:41:37.118Z,62.11
2022-11-07T00:44:04.168Z,62.53
2022-11-07T00:46:33.247Z,62.22
2022-11-07T00:49:00.689Z,62.24
2022-11-07T00:51:32.223Z,62.05
2022-11-07T00:53:59.367Z,62.26
2022-11-07T00:56:26.506Z,62.64
2022-11-07T00:58:57.905Z,62.81
2022-11-07T01:01:30.272Z,62.53
2022-11-07T01:04:18.838Z,62.64
2022-11-07T01:06:49.381Z,62.43
2022-11-07T01:09:19.478Z,62.61
2022-11-07T01:11:47.340Z,62.33
2022-11-07T01:14:17.444Z,62.46
2022-11-07T01:16:51.117Z,62.15
2022-11-07T01:19:19.055Z,62.53
2022-11-07T01:21:47.713Z,62.75
2022-11-07T01:24:18.345Z,62.69
2022-11-07T01:26:51.954Z,62.50
2022-11-07T01:29:19.814Z,62.68
2022-11-07T01:31:47.376Z,63.16
2022-11-07T01:34:15.078Z,62.68
2022-11-07T01:36:41.998Z,62.96
2022-11-07T01:39:11.759Z,63.08
2022-11-07T01:41:39.092Z,62.08
2022-11-07T01:44:11.597Z,62.47
2022-11-07T01:46:41.408Z,63.12
2022-11-07T01:49:28.968Z,62.93
2022-11-07T01:52:10.849Z,62.40
2022-11-07T01:54:41.950Z,63.39
2022-11-07T01:57:19.942Z,63.37
2022-11-07T01:59:48.092Z,62.81
2022-11-07T02:02:15.381Z,63.35
2022-11-07T02:04:42.526Z,63.12
2022-11-07T02:07:20.914Z,62.96
2022-11-07T02:09:48.270Z,63.52
2022-11-07T02:12:23.226Z,62.50
2022-11-07T02:14:53.117Z,63.27
2022-11-07T02:17:20.636Z,63.07
2022-11-07T02:19:56.203Z,62.77
2022-11-07T02:22:56.775Z,62.47
2022-11-07T02:25:28.289Z,62.12
2022-11-07T02:28:06.378Z,62.96
2022-11-07T02:30:37.137Z,62.98
2022-11-07T02:33:04.190Z,62.53
2022-11-07T02:35:44.546Z,62.25
2022-11-07T02:38:23.384Z,62.45
2022-11-07T02:40:55.645Z,62.24
2022-11-07T02:43:26.376Z,62.28
2022-11-07T02:45:58.344Z,62.08
2022-11-07T02:48:29.031Z,63.06
2022-11-07T02:50:59.221Z,63.35
2022-11-07T02:53:29.051Z,63.10
2022-11-07T02:56:00.668Z,62.45
2022-11-07T02:58:30.670Z,61.78
2022-11-07T03:01:10.076Z,62.75
2022-11-07T03:03:48.613Z,62.52
2022-11-07T03:06:18.183Z,62.42
2022-11-07T03:08:44.890Z,62.03
2022-11-07T03:11:16.917Z,62.52
2022-11-07T03:13:46.257Z,61.91
2022-11-07T03:16:14.348Z,61.92
2022-11-07T03:18:43.434Z,61.98
2022-11-07T03:21:10.384Z,62.21
2022-11-07T03:23:37.427Z,62.07
2022-11-07T03:26:07.398Z,62.44
2022-11-07T03:28:34.388Z,62.38
2022-11-07T03:31:02.873Z,62.42
2022-11-07T03:33:35.202Z,62.85
2022-11-07T03:36:03.383Z,62.64
2022-11-07T03:38:30.062Z,62.77
2022-11-07T03:41:01.415Z,62.66
2022-11-07T03:43:28.089Z,63.08
2022-11-07T03:46:02.018Z,62.30
2022-11-07T03:48:28.734Z,62.04
2022-11-07T03:50:55.653Z,61.84
2022-11-07T03:53:25.499Z,61.94
2022-11-07T03:55:55.851Z,61.97
2022-11-07T03:58:23.583Z,62.45
2022-11-07T04:00:53.574Z,62.88
2022-11-07T04:03:20.288Z,62.07
2022-11-07T04:05:49.851Z,62.54
2022-11-07T04:08:16.671Z,62.43
2022-11-07T04:10:45.204Z,62.34
2022-11-07T04:13:42.403Z,62.83
2022-11-07T04:16:34.858Z,62.90
2022-11-07T04:19:02.360Z,63.13
2022-11-07T04:21:29.130Z,62.90
2022-11-07T04:23:55.878Z,62.32
2022-11-07T04:26:47.285Z,62.83
2022-11-07T04:29:16.989Z,62.53
2022-11-07T04:31:46.214Z,63.03
2022-11-07T04:34:14.895Z,62.95
2022-11-07T04:36:47.645Z,62.95
2022-11-07T04:39:14.239Z,62.79
2022-11-07T04:41:45.936Z,62.97
2022-11-07T04:44:14.370Z,62.26
2022-11-07T04:46:41.253Z,62.82
2022-11-07T04:49:15.591Z,62.84
2022-11-07T04:51:45.419Z,62.79
2022-11-07T04:54:16.149Z,62.71
2022-11-07T04:56:45.961Z,62.56
2022-11-07T04:59:18.336Z,62.50
2022-11-07T05:01:45.042Z,62.80
2022-11-07T05:04:11.746Z,62.70
2022-11-07T05:06:38.830Z,62.83
2022-11-07T05:09:07.532Z,63.35
2022-11-07T05:11:37.803Z,62.81
2022-11-07T05:14:05.153Z,62.83
2022-11-07T05:16:33.924Z,62.95
2022-11-07T05:19:00.638Z,62.52
2022-11-07T05:21:27.307Z,62.60
2022-11-07T05:23:55.940Z,62.75
2022-11-07T05:26:22.603Z,63.08
2022-11-07T05:28:51.847Z,62.72
2022-11-07T05:31:21.512Z,63.24
2022-11-07T05:33:48.296Z,63.33
2022-11-07T05:36:22.975Z,63.35
2022-11-07T05:38:52.523Z,62.64
2022-11-07T05:41:21.423Z,62.70
2022-11-07T05:43:48.720Z,63.28
2022-11-07T05:46:18.026Z,63.34
2022-11-07T05:48:44.732Z,63.06
2022-11-07T05:51:12.949Z,63.08
2022-11-07T05:53:39.796Z,63.08
2022-11-07T05:56:11.069Z,63.12
2022-11-07T05:58:39.329Z,62.93
2022-11-07T06:01:06.749Z,62.92
2022-11-07T06:03:39.002Z,63.37
2022-11-07T06:06:05.895Z,63.35
2022-11-07T06:08:33.055Z,62.96
2022-11-07T06:11:05.920Z,61.50
2022-11-07T06:13:35.608Z,60.49
2022-11-07T06:16:05.588Z,61.12
2022-11-07T06:18:35.560Z,61.77
2022-11-07T06:21:05.945Z,62.61
2022-11-07T06:23:36.529Z,62.76
2022-11-07T06:26:03.901Z,62.56
2022-11-07T06:28:34.548Z,62.60
2022-11-07T06:31:04.774Z,62.14
2022-11-07T06:33:33.061Z,62.06
2022-11-07T06:36:11.806Z,62.37
2022-11-07T06:38:41.531Z,62.94
2022-11-07T06:41:11.019Z,63.46
2022-11-07T06:43:38.588Z,62.98
2022-11-07T06:46:08.038Z,63.47
2022-11-07T06:48:34.691Z,63.79
2022-11-07T06:51:04.073Z,63.83
2022-11-07T06:53:31.077Z,63.66
2022-11-07T06:56:01.956Z,62.70
2022-11-07T06:58:30.152Z,62.79
2022-11-07T07:01:05.194Z,63.52
2022-11-07T07:03:36.637Z,63.40
2022-11-07T07:06:08.415Z,62.95
2022-11-07T07:08:40.281Z,62.65
2022-11-07T07:11:12.014Z,61.56
2022-11-07T07:13:46.719Z,61.44
2022-11-07T07:16:15.735Z,61.14
2022-11-07T07:18:43.295Z,60.57
2022-11-07T07:21:16.400Z,61.24
2022-11-07T07:23:43.723Z,60.11
2022-11-07T07:26:14.055Z,60.65
2022-11-07T07:28:41.409Z,60.78
2022-11-07T07:31:13.842Z,60.49
2022-11-07T07:33:44.681Z,60.54
2022-11-07T07:36:16.487Z,58.68
2022-11-07T07:38:48.857Z,58.42
2022-11-07T07:41:15.813Z,57.92
2022-11-07T07:43:42.641Z,58.42
2022-11-07T07:46:14.215Z,57.99
2022-11-07T07:48:41.137Z,58.28
2022-11-07T07:51:10.776Z,57.24
2022-11-07T07:53:44.393Z,57.47
2022-11-07T07:56:11.352Z,57.29
2022-11-07T07:58:38.219Z,56.81
2022-11-07T08:01:10.372Z,57.11
2022-11-07T08:04:00.137Z,57.13
2022-11-07T08:06:28.156Z,57.14
2022-11-07T08:08:57.506Z,56.40
2022-11-07T08:11:24.226Z,56.51
2022-11-07T08:13:51.451Z,56.16
2022-11-07T08:16:19.380Z,56.58
2022-11-07T08:18:49.285Z,56.57
2022-11-07T08:21:16.162Z,56.16
2022-11-07T08:23:42.864Z,55.41
2022-11-07T08:26:09.847Z,55.39
2022-11-07T08:28:41.653Z,55.69
2022-11-07T08:31:10.527Z,55.53
2022-11-07T08:33:37.385Z,55.46
2022-11-07T08:36:06.505Z,55.43
2022-11-07T08:38:35.745Z,54.67
2022-11-07T08:41:08.880Z,54.91
2022-11-07T08:43:36.377Z,54.88
2022-11-07T08:46:05.740Z,54.49
2022-11-07T08:48:35.396Z,54.57
2022-11-07T08:51:03.460Z,54.66
2022-11-07T08:53:30.769Z,53.80
2022-11-07T08:56:08.474Z,53.24
2022-11-07T08:58:36.866Z,53.44
2022-11-07T09:01:08.353Z,53.96
2022-11-07T09:03:47.355Z,53.79
2022-11-07T09:06:18.011Z,53.89
2022-11-07T09:08:48.664Z,53.89
2022-11-07T09:11:18.998Z,54.22
2022-11-07T09:13:51.319Z,54.20
2022-11-07T09:16:18.118Z,54.21
2022-11-07T09:18:50.734Z,53.93
2022-11-07T09:21:22.685Z,53.42
2022-11-07T09:23:50.705Z,52.83
2022-11-07T09:26:17.449Z,53.11
2022-11-07T09:28:48.417Z,52.71
2022-11-07T09:31:18.348Z,52.18
2022-11-07T09:33:44.921Z,52.04
2022-11-07T09:36:13.194Z,52.04
2022-11-07T09:38:39.919Z,51.53
2022-11-07T09:41:16.314Z,51.36
2022-11-07T09:43:49.164Z,51.26
2022-11-07T09:46:34.646Z,51.48
2022-11-07T09:49:20.656Z,51.20
2022-11-07T09:52:20.010Z,50.43
2022-11-07T09:55:01.978Z,50.62
2022-11-07T09:57:31.311Z,50.47
2022-11-07T10:00:03.436Z,50.17
2022-11-07T10:02:38.130Z,50.36
2022-11-07T10:05:05.846Z,50.75
2022-11-07T10:07:47.519Z,50.82
2022-11-07T10:10:39.318Z,50.41
2022-11-07T10:13:15.304Z,50.35
2022-11-07T10:16:04.727Z,50.07
2022-11-07T10:18:53.510Z,49.74
2022-11-07T10:21:58.031Z,50.00
2022-11-07T10:24:36.855Z,49.62
2022-11-07T10:27:11.405Z,48.89
2022-11-07T10:29:47.109Z,48.86
2022-11-07T10:32:35.407Z,48.53
2022-11-07T10:35:06.561Z,47.95
2022-11-07T10:37:36.464Z,47.22
2022-11-07T10:40:13.882Z,47.76
2022-11-07T10:42:53.960Z,47.31
2022-11-07T10:45:22.799Z,47.27
2022-11-07T10:48:04.019Z,46.50
2022-11-07T10:50:31.729Z,46.57
2022-11-07T10:53:07.600Z,46.13
2022-11-07T10:55:44.006Z,46.08
2022-11-07T10:58:28.757Z,45.98
2022-11-07T11:01:10.791Z,46.16
2022-11-07T11:04:05.505Z,46.74
2022-11-07T11:06:35.319Z,47.39
2022-11-07T11:09:15.118Z,47.21
2022-11-07T11:11:45.965Z,47.01
2022-11-07T11:14:14.736Z,47.67
2022-11-07T11:16:45.214Z,48.16
2022-11-07T11:19:30.244Z,48.14
2022-11-07T11:22:00.087Z,48.19
2022-11-07T11:24:29.818Z,48.32
2022-11-07T11:27:03.256Z,48.24
2022-11-07T11:29:39.546Z,47.92
2022-11-07T11:32:26.374Z,47.83
2022-11-07T11:35:16.338Z,48.25
2022-11-07T11:37:53.872Z,48.40
2022-11-07T11:40:27.293Z,48.62
2022-11-07T11:43:04.893Z,48.65
2022-11-07T11:45:40.883Z,48.68
2022-11-07T11:48:18.192Z,48.37
2022-11-07T11:50:51.968Z,48.24
2022-11-07T11:53:21.312Z,48.40
2022-11-07T11:56:02.055Z,48.58
2022-11-07T11:59:00.580Z,48.89
2022-11-07T12:01:47.480Z,48.72
2022-11-07T12:04:37.567Z,49.64
2022-11-07T12:07:30.665Z,49.01
2022-11-07T12:10:05.639Z,49.10
2022-11-07T12:12:38.114Z,49.58
2022-11-07T12:15:24.135Z,50.15
2022-11-07T12:18:14.653Z,49.93
2022-11-07T12:21:35.521Z,50.38
2022-11-07T12:24:11.243Z,50.62
2022-11-07T12:26:57.898Z,50.86
2022-11-07T12:29:58.152Z,49.87
2022-11-07T12:32:43.843Z,50.34
2022-11-07T12:35:32.018Z,50.34
2022-11-07T12:38:13.417Z,50.78
2022-11-07T12:41:13.169Z,50.22
2022-11-07T12:44:04.955Z,50.48
2022-11-07T12:46:51.092Z,50.79
2022-11-07T12:49:26.972Z,50.81
2022-11-07T12:52:09.677Z,50.86
2022-11-07T12:55:04.674Z,50.96
2022-11-07T12:57:38.440Z,51.18
2022-11-07T13:00:17.699Z,50.77
2022-11-07T13:03:06.562Z,49.79
2022-11-07T13:05:36.238Z,50.16
2022-11-07T13:08:21.525Z,50.27
2022-11-07T13:11:06.374Z,50.55
2022-11-07T13:14:17.207Z,50.46
2022-11-07T13:17:05.573Z,49.99
2022-11-07T13:19:37.360Z,50.28
2022-11-07T13:22:19.934Z,49.94
2022-11-07T13:25:23.906Z,50.21
2022-11-07T13:27:53.750Z,50.09
2022-11-07T13:30:30.615Z,50.35
2022-11-07T13:32:58.979Z,50.55
2022-11-07T13:35:27.548Z,50.44
2022-11-07T13:38:09.057Z,51.01
2022-11-07T13:40:40.471Z,50.89
2022-11-07T13:43:29.634Z,50.46
2022-11-07T13:46:03.319Z,49.96
2022-11-07T13:48:57.699Z,49.33
2022-11-07T13:51:48.716Z,49.68
2022-11-07T13:54:28.389Z,49.90
2022-11-07T13:57:07.661Z,50.18
2022-11-07T14:00:05.587Z,50.32
2022-11-07T14:02:35.731Z,50.13
2022-11-07T14:05:16.966Z,50.26
2022-11-07T14:08:10.833Z,50.14
2022-11-07T14:10:47.236Z,50.44
2022-11-07T14:13:22.483Z,50.88
2022-11-07T14:15:54.100Z,50.44
2022-11-07T14:18:23.141Z,50.06
2022-11-07T14:20:56.690Z,50.63
2022-11-07T14:23:30.047Z,51.07
2022-11-07T14:26:00.910Z,51.06
2022-11-07T14:28:41.355Z,50.66
2022-11-07T14:31:25.125Z,51.22
2022-11-07T14:34:01.915Z,51.40
2022-11-07T14:36:33.423Z,51.28
2022-11-07T14:39:18.330Z,51.82
2022-11-07T14:41:47.828Z,51.21
2022-11-07T14:44:36.240Z,50.77
2022-11-07T14:47:17.784Z,52.21
2022-11-07T14:49:48.869Z,51.60
2022-11-07T14:52:46.079Z,51.47
2022-11-07T14:55:47.268Z,51.29
2022-11-07T14:58:16.845Z,51.14
2022-11-07T15:01:46.286Z,52.08
2022-11-07T15:04:28.699Z,52.43
2022-11-07T15:06:57.542Z,52.57
2022-11-07T15:09:37.074Z,52.31
2022-11-07T15:12:16.348Z,52.40
2022-11-07T15:14:47.999Z,52.46
2022-11-07T15:17:26.635Z,52.89
2022-11-07T15:20:04.630Z,52.94
2022-11-07T15:22:37.375Z,53.63
2022-11-07T15:25:24.192Z,53.72
2022-11-07T15:28:02.840Z,54.16
2022-11-07T15:30:35.461Z,53.80
2022-11-07T15:33:02.156Z,54.74
2022-11-07T15:35:44.014Z,55.72
2022-11-07T15:38:39.448Z,56.38
2022-11-07T15:41:09.347Z,56.70
2022-11-07T15:43:36.233Z,56.60
2022-11-07T15:46:12.348Z,56.57
2022-11-07T15:48:41.490Z,57.31
2022-11-07T15:51:09.249Z,58.22
2022-11-07T15:53:36.025Z,58.92
2022-11-07T15:56:13.912Z,58.51
2022-11-07T15:58:40.985Z,58.63
2022-11-07T16:01:13.776Z,59.34
2022-11-07T16:03:41.293Z,59.29
2022-11-07T16:06:33.136Z,59.56
2022-11-07T16:09:00.160Z,59.83
2022-11-07T16:11:27.754Z,60.27
2022-11-07T16:14:14.672Z,60.00
2022-11-07T16:16:44.016Z,60.01
2022-11-07T16:19:18.885Z,60.66
2022-11-07T16:21:48.186Z,60.62
2022-11-07T16:24:19.733Z,60.96
2022-11-07T16:26:49.547Z,60.80
2022-11-07T16:29:16.339Z,61.07
2022-11-07T16:31:44.501Z,60.63
2022-11-07T16:34:12.216Z,61.12
2022-11-07T16:36:40.043Z,61.58
2022-11-07T16:39:11.557Z,61.85
2022-11-07T16:41:38.421Z,61.07
2022-11-07T16:44:05.369Z,61.29
2022-11-07T16:46:42.061Z,61.41
2022-11-07T16:49:41.901Z,61.53
2022-11-07T16:52:16.327Z,62.47
2022-11-07T16:54:45.750Z,61.67
2022-11-07T16:57:22.842Z,62.26
2022-11-07T16:59:52.799Z,62.24
2022-11-07T17:02:25.713Z,62.50
2022-11-07T17:04:54.338Z,62.32
2022-11-07T17:07:23.907Z,62.72
2022-11-07T17:09:54.023Z,62.57
2022-11-07T17:12:25.189Z,63.07
2022-11-07T17:14:58.184Z,62.80
2022-11-07T17:17:32.533Z,62.97
2022-11-07T17:19:59.444Z,63.37
2022-11-07T17:22:29.119Z,63.36
2022-11-07T17:24:55.802Z,63.26
2022-11-07T17:27:27.359Z,63.12
2022-11-07T17:29:55.819Z,62.35
2022-11-07T17:32:26.684Z,62.58
2022-11-07T17:35:30.718Z,62.70
2022-11-07T17:37:53.551Z,62.94
2022-11-07T17:40:30.209Z,63.32
2022-11-07T17:43:00.647Z,62.90
2022-11-07T17:45:28.090Z,62.95
2022-11-07T17:47:55.161Z,63.05
2022-11-07T17:50:25.182Z,63.08
2022-11-07T17:53:06.107Z,63.01
2022-11-07T17:55:36.433Z,63.10
2022-11-07T17:58:04.381Z,63.38
2022-11-07T18:00:33.126Z,63.71
2022-11-07T18:03:00.022Z,63.79
2022-11-07T18:05:32.896Z,64.09
2022-11-07T18:08:01.182Z,63.08
2022-11-07T18:10:27.895Z,62.03
2022-11-07T18:12:58.941Z,61.58
2022-11-07T18:15:28.790Z,62.76
2022-11-07T18:17:55.837Z,62.78
2022-11-07T18:20:25.330Z,63.57
2022-11-07T18:22:52.045Z,63.56
2022-11-07T18:25:24.703Z,63.74
2022-11-07T18:27:53.044Z,63.79
2022-11-07T18:30:20.147Z,63.92
2022-11-07T18:32:47.264Z,64.00
2022-11-07T18:35:14.210Z,64.16
2022-11-07T18:37:43.704Z,63.98
2022-11-07T18:40:17.801Z,63.49
2022-11-07T18:42:47.548Z,64.36
2022-11-07T18:45:14.254Z,64.09
2022-11-07T18:47:41.543Z,64.10
2022-11-07T18:50:08.609Z,64.39
2022-11-07T18:52:35.408Z,64.80
2022-11-07T18:55:02.558Z,64.77
2022-11-07T18:57:32.730Z,64.71
2022-11-07T19:00:00.467Z,64.63
2022-11-07T19:02:31.378Z,64.88
2022-11-07T19:05:01.157Z,64.78
2022-11-07T19:07:33.030Z,64.92
2022-11-07T19:09:59.643Z,65.47
2022-11-07T19:12:30.064Z,65.58
2022-11-07T19:14:59.122Z,65.42
2022-11-07T19:17:26.901Z,65.16
2022-11-07T19:19:54.116Z,65.27
2022-11-07T19:22:21.019Z,65.54
2022-11-07T19:24:48.120Z,65.37
2022-11-07T19:27:15.156Z,65.14
2022-11-07T19:29:42.807Z,65.25
2022-11-07T19:32:09.549Z,65.78
2022-11-07T19:34:36.414Z,65.68
2022-11-07T19:37:03.163Z,65.98
2022-11-07T19:39:34.145Z,65.68
2022-11-07T19:42:01.208Z,66.38
2022-11-07T19:44:39.814Z,65.82
2022-11-07T19:47:08.630Z,66.11
2022-11-07T19:49:35.231Z,65.81
2022-11-07T19:52:01.911Z,66.24
2022-11-07T19:54:28.862Z,66.61
2022-11-07T19:56:57.648Z,66.31
2022-11-07T19:59:24.911Z,66.50
2022-11-07T20:02:17.809Z,66.69
2022-11-07T20:04:40.996Z,65.93
2022-11-07T20:07:09.013Z,65.93
2022-11-07T20:09:47.376Z,66.46
2022-11-07T20:12:17.798Z,66.50
2022-11-07T20:14:50.664Z,66.88
2022-11-07T20:17:19.557Z,66.53
2022-11-07T20:19:46.678Z,67.05
2022-11-07T20:22:13.689Z,67.14
2022-11-07T20:24:40.487Z,66.91
2022-11-07T20:27:10.204Z,66.62
2022-11-07T20:29:39.459Z,66.94
2022-11-07T20:32:06.265Z,66.66
2022-11-07T20:34:33.107Z,66.90
2022-11-07T20:36:59.926Z,66.89
2022-11-07T20:39:30.171Z,67.19
2022-11-07T20:41:57.362Z,67.32
2022-11-07T20:44:26.224Z,66.84
2022-11-07T20:46:53.114Z,67.33
2022-11-07T20:49:30.457Z,66.86
2022-11-07T20:51:58.440Z,67.12
2022-11-07T20:54:29.536Z,67.90
2022-11-07T20:57:01.509Z,67.83
2022-11-07T20:59:29.270Z,67.37
2022-11-07T21:02:03.664Z,67.31
2022-11-07T21:04:44.614Z,67.75
2022-11-07T21:07:23.289Z,68.17
2022-11-07T21:09:53.671Z,67.92
2022-11-07T21:12:20.525Z,68.24
2022-11-07T21:14:50.709Z,68.12
2022-11-07T21:17:27.259Z,68.45
2022-11-07T21:19:54.215Z,68.58
2022-11-07T21:22:29.563Z,68.58
2022-11-07T21:24:56.998Z,68.27
2022-11-07T21:27:23.883Z,68.39
2022-11-07T21:29:52.600Z,67.85
2022-11-07T21:32:22.794Z,67.17
2022-11-07T21:34:49.577Z,67.13
2022-11-07T21:37:18.318Z,67.34
2022-11-07T21:39:45.117Z,67.66
2022-11-07T21:42:12.863Z,67.66
2022-11-07T21:44:47.736Z,67.66
2022-11-07T21:47:14.732Z,67.65
2022-11-07T21:49:41.387Z,67.53
2022-11-07T21:52:12.612Z,67.87
2022-11-07T21:54:45.107Z,67.82
2022-11-07T21:57:13.979Z,68.01
2022-11-07T21:59:49.769Z,67.73
2022-11-07T22:02:16.755Z,68.16
2022-11-07T22:04:43.622Z,68.08
2022-11-07T22:07:19.239Z,68.00
2022-11-07T22:09:46.145Z,68.28
2022-11-07T22:12:12.956Z,67.50
2022-11-07T22:14:39.737Z,67.62
2022-11-07T22:17:06.896Z,67.52
2022-11-07T22:19:33.689Z,67.50
2022-11-07T22:22:00.738Z,68.14
2022-11-07T22:24:27.582Z,67.64
2022-11-07T22:26:55.890Z,67.74
2022-11-07T22:29:23.123Z,68.20
2022-11-07T22:31:49.886Z,68.29
2022-11-07T22:34:22.271Z,68.31
2022-11-07T22:36:49.387Z,68.07
2022-11-07T22:39:17.708Z,67.85
2022-11-07T22:41:46.504Z,67.98
2022-11-07T22:44:16.281Z,68.29
2022-11-07T22:46:42.987Z,68.60
2022-11-07T22:49:12.834Z,68.44
2022-11-07T22:51:43.491Z,68.43
2022-11-07T22:54:16.614Z,68.93
2022-11-07T22:56:43.474Z,68.86
2022-11-07T22:59:18.549Z,68.61
2022-11-07T23:01:45.265Z,68.71
2022-11-07T23:04:15.830Z,68.73
2022-11-07T23:06:42.608Z,69.28
2022-11-07T23:09:13.540Z,69.18
2022-11-07T23:11:45.875Z,68.99
2022-11-07T23:14:20.691Z,68.93
2022-11-07T23:16:49.753Z,68.65
2022-11-07T23:19:18.578Z,68.70
2022-11-07T23:21:45.175Z,68.83
2022-11-07T23:24:19.529Z,68.70
2022-11-07T23:26:46.473Z,68.73
2022-11-07T23:29:16.995Z,69.35
2022-11-07T23:31:46.923Z,69.18
2022-11-07T23:34:17.236Z,69.55
2022-11-07T23:36:46.255Z,68.75
2022-11-07T23:39:42.436Z,69.19
2022-11-07T23:42:10.233Z,69.16
2022-11-07T23:44:59.000Z,69.20
2022-11-07T23:47:46.231Z,69.56
2022-11-07T23:50:31.548Z,69.43
2022-11-07T23:52:58.207Z,69.59
2022-11-07T23:55:39.857Z,69.20
2022-11-07T23:58:30.887Z,69.59
